createdAt,value
2022-11-03T00:02:15.789Z,99012.47
2022-11-03T00:05:37.231Z,99012.53
2022-11-03T00:08:46.425Z,99012.41
2022-11-03T00:11:54.083Z,99007.31
2022-11-03T00:15:00.569Z,99003.78
2022-11-03T00:18:07.854Z,99013.50
2022-11-03T00:21:16.249Z,99018.81
2022-11-03T00:24:24.786Z,99025.03
2022-11-03T00:27:31.221Z,99015.66
2022-11-03T00:30:36.743Z,99013.22
2022-11-03T00:33:44.053Z,99017.59
2022-11-03T00:36:49.830Z,99030.75
2022-11-03T00:39:59.017Z,99028.25
2022-11-03T00:43:06.621Z,99030.97
2022-11-03T00:46:14.035Z,99028.41
2022-11-03T00:49:19.569Z,99024.94
2022-11-03T00:52:26.342Z,99029.50
2022-11-03T00:55:34.620Z,99031.34
2022-11-03T00:58:41.044Z,99031.53
2022-11-03T01:01:48.248Z,99034.31
2022-11-03T01:05:10.547Z,99031.81
2022-11-03T01:08:16.093Z,99024.06
2022-11-03T01:11:42.844Z,99030.13
2022-11-03T01:14:50.530Z,99032.78
2022-11-03T01:17:58.262Z,99030.25
2022-11-03T01:21:09.440Z,99031.09
2022-11-03T01:24:15.976Z,99031.97
2022-11-03T01:27:25.228Z,99032.06
2022-11-03T01:30:31.879Z,99035.56
2022-11-03T01:33:37.540Z,99029.56
2022-11-03T01:36:44.235Z,99032.28
2022-11-03T01:39:49.797Z,99026.28
2022-11-03T01:42:58.929Z,99021.13
2022-11-03T01:46:09.864Z,99031.66
2022-11-03T01:49:20.578Z,99029.09
2022-11-03T01:52:29.395Z,99029.94
2022-11-03T01:55:40.231Z,99026.56
2022-11-03T01:58:51.877Z,99015.44
2022-11-03T02:01:58.843Z,99024.31
2022-11-03T02:05:06.879Z,99020.06
2022-11-03T02:08:18.383Z,99010.66
2022-11-03T02:11:39.628Z,99011.56
2022-11-03T02:14:55.624Z,99015.09
2022-11-03T02:18:04.915Z,99017.69
2022-11-03T02:21:19.238Z,99013.44
2022-11-03T02:24:30.705Z,99018.69
2022-11-03T02:27:39.994Z,99016.19
2022-11-03T02:30:49.673Z,99018.78
2022-11-03T02:34:07.938Z,99004.94
2022-11-03T02:37:19.057Z,99012.09
2022-11-03T02:40:30.995Z,99008.75
2022-11-03T02:43:40.595Z,99013.13
2022-11-03T02:46:48.990Z,99005.38
2022-11-03T02:49:57.347Z,99014.06
2022-11-03T02:53:03.680Z,99013.41
2022-11-03T02:56:16.940Z,99005.75
2022-11-03T02:59:29.694Z,99006.69
2022-11-03T03:02:43.109Z,99004.19
2022-11-03T03:05:50.803Z,99010.34
2022-11-03T03:09:03.607Z,99008.63
2022-11-03T03:12:11.805Z,99008.72
2022-11-03T03:15:23.270Z,99014.78
2022-11-03T03:18:34.401Z,99007.00
2022-11-03T03:21:45.755Z,99010.72
2022-11-03T03:24:57.039Z,99009.13
2022-11-03T03:28:09.520Z,99002.28
2022-11-03T03:31:20.024Z,99017.94
2022-11-03T03:34:35.347Z,99012.81
2022-11-03T03:37:47.940Z,99017.22
2022-11-03T03:40:59.699Z,99012.94
2022-11-03T03:44:10.397Z,99016.34
2022-11-03T03:47:25.185Z,99015.41
2022-11-03T03:50:34.711Z,99016.44
2022-11-03T03:53:41.392Z,99011.31
2022-11-03T03:56:51.379Z,99007.13
2022-11-03T03:59:57.761Z,99009.81
2022-11-03T04:03:06.489Z,99016.84
2022-11-03T04:06:13.263Z,99017.66
2022-11-03T04:09:18.809Z,99010.75
2022-11-03T04:12:41.597Z,99008.25
2022-11-03T04:16:03.298Z,99010.00
2022-11-03T04:19:29.465Z,99009.97
2022-11-03T04:22:37.221Z,99008.31
2022-11-03T04:25:47.939Z,98997.88
2022-11-03T04:28:55.455Z,99002.44
2022-11-03T04:32:03.269Z,98996.56
2022-11-03T04:35:18.830Z,99002.56
2022-11-03T04:38:26.989Z,98999.28
2022-11-03T04:41:36.062Z,98990.75
2022-11-03T04:44:42.481Z,98988.31
2022-11-03T04:47:48.064Z,98989.25
2022-11-03T04:51:01.248Z,98979.97
2022-11-03T04:54:16.369Z,98982.47
2022-11-03T04:57:22.853Z,98988.63
2022-11-03T05:00:28.762Z,98976.63
2022-11-03T05:03:38.000Z,98983.47
2022-11-03T05:06:50.706Z,98976.56
2022-11-03T05:09:57.471Z,98976.66
2022-11-03T05:13:03.972Z,98970.69
2022-11-03T05:16:11.660Z,98965.56
2022-11-03T05:19:21.604Z,98963.91
2022-11-03T05:22:35.014Z,98957.03
2022-11-03T05:25:45.155Z,98961.53
2022-11-03T05:28:54.509Z,98968.72
2022-11-03T05:32:00.562Z,98961.06
2022-11-03T05:35:22.161Z,98968.84
2022-11-03T05:38:33.559Z,98975.88
2022-11-03T05:41:39.967Z,98972.63
2022-11-03T05:44:45.695Z,98974.38
2022-11-03T05:47:53.316Z,98977.19
2022-11-03T05:51:00.629Z,98983.22
2022-11-03T05:54:22.874Z,98973.63
2022-11-03T05:57:31.457Z,98978.00
2022-11-03T06:00:48.565Z,98978.84
2022-11-03T06:03:54.904Z,98984.06
2022-11-03T06:07:06.306Z,98977.06
2022-11-03T06:10:27.380Z,98983.06
2022-11-03T06:13:37.934Z,98989.13
2022-11-03T06:16:47.056Z,98985.66
2022-11-03T06:19:56.946Z,98989.91
2022-11-03T06:23:04.134Z,98983.84
2022-11-03T06:26:21.370Z,98982.91
2022-11-03T06:29:27.426Z,98986.22
2022-11-03T06:32:36.366Z,98988.75
2022-11-03T06:35:43.272Z,98989.47
2022-11-03T06:38:53.683Z,98972.25
2022-11-03T06:42:03.604Z,98983.16
2022-11-03T06:45:17.958Z,98977.91
2022-11-03T06:48:28.576Z,98967.50
2022-11-03T06:51:39.673Z,98975.13
2022-11-03T06:54:45.309Z,98976.75
2022-11-03T06:57:59.023Z,98982.84
2022-11-03T07:01:06.927Z,98972.53
2022-11-03T07:04:19.332Z,98987.19
2022-11-03T07:07:28.077Z,98976.56
2022-11-03T07:10:37.858Z,98979.94
2022-11-03T07:13:51.101Z,98973.69
2022-11-03T07:17:00.667Z,98972.66
2022-11-03T07:20:16.541Z,98962.81
2022-11-03T07:23:26.088Z,98958.25
2022-11-03T07:26:31.968Z,98964.94
2022-11-03T07:29:42.556Z,98961.25
2022-11-03T07:32:49.085Z,98956.72
2022-11-03T07:39:24.697Z,98948.22
2022-11-03T07:42:31.611Z,98941.78
2022-11-03T07:45:45.676Z,98938.88
2022-11-03T07:48:53.849Z,98935.03
2022-11-03T07:52:03.300Z,98927.69
2022-11-03T07:55:16.663Z,98920.31
2022-11-03T07:58:26.691Z,98909.63
2022-11-03T08:01:39.648Z,98914.28
2022-11-03T08:04:45.326Z,98919.09
2022-11-03T08:07:52.065Z,98904.84
2022-11-03T08:10:57.634Z,98906.22
2022-11-03T08:14:04.240Z,98900.66
2022-11-03T08:17:12.924Z,98893.38
2022-11-03T08:20:19.603Z,98900.91
2022-11-03T08:23:26.749Z,98892.66
2022-11-03T08:26:33.367Z,98891.47
2022-11-03T08:29:39.041Z,98877.13
2022-11-03T08:32:48.747Z,98870.84
2022-11-03T08:35:54.932Z,98877.25
2022-11-03T08:39:01.386Z,98875.16
2022-11-03T08:42:07.669Z,98873.09
2022-11-03T08:45:14.685Z,98861.44
2022-11-03T08:48:23.646Z,98861.94
2022-11-03T08:51:30.194Z,98865.22
2022-11-03T08:54:36.055Z,98864.97
2022-11-03T08:57:42.710Z,98855.78
2022-11-03T09:00:49.181Z,98858.06
2022-11-03T09:04:21.711Z,98853.41
2022-11-03T09:10:53.971Z,98843.28
2022-11-03T09:14:00.208Z,98842.97
2022-11-03T09:17:09.286Z,98849.66
2022-11-03T09:20:17.808Z,98841.56
2022-11-03T09:23:24.357Z,98832.50
2022-11-03T09:26:30.576Z,98844.41
2022-11-03T09:30:06.564Z,98844.72
2022-11-03T09:33:04.157Z,98841.84
2022-11-03T09:36:13.973Z,98840.56
2022-11-03T09:39:19.766Z,98829.69
2022-11-03T09:42:27.178Z,98827.56
2022-11-03T09:45:32.910Z,98824.63
2022-11-03T09:48:39.549Z,98813.69
2022-11-03T09:51:48.585Z,98809.81
2022-11-03T09:54:58.082Z,98809.38
2022-11-03T09:58:12.332Z,98805.50
2022-11-03T10:01:19.488Z,98796.41
2022-11-03T10:04:31.382Z,98784.59
2022-11-03T10:07:41.236Z,98782.56
2022-11-03T10:10:46.974Z,98778.84
2022-11-03T10:13:59.212Z,98772.44
2022-11-03T10:17:11.364Z,98761.72
2022-11-03T10:20:19.741Z,98758.09
2022-11-03T10:23:28.428Z,98747.25
2022-11-03T10:26:47.112Z,98743.22
2022-11-03T10:30:11.510Z,98742.91
2022-11-03T10:33:29.064Z,98736.72
2022-11-03T10:36:36.609Z,98733.91
2022-11-03T10:39:47.840Z,98739.00
2022-11-03T10:43:04.042Z,98721.31
2022-11-03T10:46:44.719Z,98718.50
2022-11-03T10:49:48.004Z,98713.91
2022-11-03T10:52:55.151Z,98703.94
2022-11-03T10:56:03.611Z,98694.09
2022-11-03T10:59:18.002Z,98692.16
2022-11-03T11:02:25.931Z,98688.31
2022-11-03T11:05:33.167Z,98690.03
2022-11-03T11:08:40.826Z,98686.28
2022-11-03T11:15:44.783Z,98667.44
2022-11-03T11:19:06.287Z,98666.16
2022-11-03T11:22:25.831Z,98650.16
2022-11-03T11:26:15.314Z,98647.88
2022-11-03T11:29:45.919Z,98634.97
2022-11-03T11:33:05.288Z,98634.63
2022-11-03T11:36:31.887Z,98630.69
2022-11-03T11:39:55.959Z,98632.88
2022-11-03T11:43:29.725Z,98622.84
2022-11-03T11:46:45.168Z,98625.88
2022-11-03T11:50:06.915Z,98615.63
2022-11-03T11:53:16.339Z,98612.72
2022-11-03T11:56:22.809Z,98601.63
2022-11-03T11:59:29.403Z,98604.41
2022-11-03T12:02:35.099Z,98598.59
2022-11-03T12:05:52.144Z,98586.53
2022-11-03T12:09:07.605Z,98588.56
2022-11-03T12:12:14.064Z,98586.31
2022-11-03T12:15:52.321Z,98581.38
2022-11-03T12:18:59.170Z,98568.03
2022-11-03T12:22:12.015Z,98571.19
2022-11-03T12:25:40.409Z,98563.84
2022-11-03T12:28:46.384Z,98551.53
2022-11-03T12:31:53.729Z,98545.22
2022-11-03T12:34:59.445Z,98534.38
2022-11-03T12:38:10.086Z,98529.78
2022-11-03T12:41:40.134Z,98536.53
2022-11-03T12:44:46.940Z,98515.97
2022-11-03T12:47:52.561Z,98517.34
2022-11-03T12:50:59.110Z,98507.47
2022-11-03T12:54:10.351Z,98494.81
2022-11-03T12:57:16.873Z,98484.06
2022-11-03T13:00:22.861Z,98491.25
2022-11-03T13:03:30.314Z,98489.53
2022-11-03T13:06:36.233Z,98487.63
2022-11-03T13:09:45.493Z,98478.78
2022-11-03T13:12:51.071Z,98468.25
2022-11-03T13:15:57.571Z,98461.28
2022-11-03T13:19:05.138Z,98456.97
2022-11-03T13:22:12.305Z,98452.63
2022-11-03T13:25:20.775Z,98444.72
2022-11-03T13:28:29.518Z,98442.09
2022-11-03T13:31:35.924Z,98436.19
2022-11-03T13:34:42.471Z,98442.50
2022-11-03T13:37:48.599Z,98440.00
2022-11-03T13:41:03.594Z,98432.94
2022-11-03T13:44:13.080Z,98429.84
2022-11-03T13:47:24.793Z,98421.34
2022-11-03T13:50:35.510Z,98421.63
2022-11-03T14:00:37.300Z,98398.06
2022-11-03T14:07:09.863Z,98407.69
2022-11-03T14:10:15.780Z,98408.84
2022-11-03T14:13:25.021Z,98407.25
2022-11-03T14:16:30.665Z,98400.06
2022-11-03T14:19:43.096Z,98402.72
2022-11-03T14:22:51.710Z,98404.56
2022-11-03T14:26:13.059Z,98409.09
2022-11-03T14:29:27.246Z,98410.81
2022-11-03T14:32:34.272Z,98399.22
2022-11-03T14:35:39.888Z,98398.19
2022-11-03T14:38:49.978Z,98397.00
2022-11-03T14:42:08.715Z,98392.72
2022-11-03T14:45:20.872Z,98387.44
2022-11-03T14:48:26.780Z,98388.50
2022-11-03T14:51:33.878Z,98382.56
2022-11-03T14:54:39.675Z,98382.97
2022-11-03T14:57:46.528Z,98385.72
2022-11-03T15:00:55.273Z,98375.28
2022-11-03T15:04:03.289Z,98370.31
2022-11-03T15:07:09.081Z,98362.75
2022-11-03T15:10:15.649Z,98370.31
2022-11-03T15:13:21.419Z,98369.66
2022-11-03T15:16:30.914Z,98363.78
2022-11-03T15:19:36.614Z,98364.50
2022-11-03T15:26:10.408Z,98356.59
2022-11-03T15:29:17.816Z,98360.16
2022-11-03T15:32:26.736Z,98347.97
2022-11-03T15:35:33.361Z,98349.88
2022-11-03T15:38:39.062Z,98339.63
2022-11-03T15:41:45.584Z,98340.66
2022-11-03T15:44:51.188Z,98340.13
2022-11-03T15:48:00.411Z,98330.97
2022-11-03T15:51:08.460Z,98330.44
2022-11-03T15:54:14.924Z,98323.03
2022-11-03T15:57:20.995Z,98313.56
2022-11-03T16:00:27.429Z,98310.19
2022-11-03T16:03:37.046Z,98310.19
2022-11-03T16:10:09.977Z,98301.75
2022-11-03T16:13:16.434Z,98295.00
2022-11-03T16:16:22.340Z,98293.72
2022-11-03T16:19:31.582Z,98290.50
2022-11-03T16:22:37.446Z,98286.88
2022-11-03T16:25:43.904Z,98291.16
2022-11-03T16:28:49.510Z,98290.88
2022-11-03T16:31:56.001Z,98286.13
2022-11-03T16:35:07.061Z,98280.59
2022-11-03T16:38:15.549Z,98276.75
2022-11-03T16:41:21.236Z,98272.72
2022-11-03T16:44:27.805Z,98269.78
2022-11-03T16:47:33.563Z,98263.09
2022-11-03T16:50:44.775Z,98266.09
2022-11-03T16:53:52.943Z,98256.94
2022-11-03T16:56:59.399Z,98252.97
2022-11-03T17:00:08.134Z,98249.78
2022-11-03T17:03:14.629Z,98248.31
2022-11-03T17:06:23.263Z,98237.97
2022-11-03T17:09:29.948Z,98228.69
2022-11-03T17:12:35.958Z,98229.91
2022-11-03T17:15:42.452Z,98223.16
2022-11-03T17:18:48.057Z,98224.34
2022-11-03T17:21:57.364Z,98219.56
2022-11-03T17:25:03.548Z,98217.13
2022-11-03T17:28:12.999Z,98218.84
2022-11-03T17:31:18.956Z,98209.56
2022-11-03T17:34:27.916Z,98220.91
2022-11-03T17:37:38.184Z,98215.66
2022-11-03T17:40:45.992Z,98220.91
2022-11-03T17:43:51.829Z,98216.22
2022-11-03T17:46:58.293Z,98220.13
2022-11-03T17:50:04.388Z,98210.31
2022-11-03T17:53:23.071Z,98204.44
2022-11-03T17:56:30.843Z,98208.56
2022-11-03T17:59:38.218Z,98203.13
2022-11-03T18:02:44.033Z,98181.94
2022-11-03T18:05:50.562Z,98173.66
2022-11-03T18:08:59.573Z,98166.91
2022-11-03T18:12:22.892Z,98154.34
2022-11-03T18:15:29.238Z,98157.50
2022-11-03T18:18:38.298Z,98148.47
2022-11-03T18:21:44.272Z,98143.97
2022-11-03T18:24:54.829Z,98140.97
2022-11-03T18:28:00.870Z,98146.88
2022-11-03T18:31:16.168Z,98136.13
2022-11-03T18:34:25.534Z,98135.09
2022-11-03T18:37:33.464Z,98124.59
2022-11-03T18:40:41.951Z,98118.41
2022-11-03T18:43:48.401Z,98119.31
2022-11-03T18:46:55.679Z,98114.06
2022-11-03T18:50:03.988Z,98112.22
2022-11-03T18:53:15.268Z,98109.41
2022-11-03T18:56:24.997Z,98110.13
2022-11-03T18:59:33.411Z,98109.09
2022-11-03T19:02:39.934Z,98093.41
2022-11-03T19:05:46.172Z,98087.41
2022-11-03T19:08:59.379Z,98083.84
2022-11-03T19:12:12.903Z,98073.16
2022-11-03T19:15:23.112Z,98069.56
2022-11-03T19:18:30.533Z,98071.25
2022-11-03T19:21:36.998Z,98057.16
2022-11-03T19:24:42.797Z,98050.25
2022-11-03T19:27:52.515Z,98049.28
2022-11-03T19:30:58.293Z,98042.56
2022-11-03T19:34:07.865Z,98036.56
2022-11-03T19:37:14.812Z,98038.47
2022-11-03T19:40:23.314Z,98026.25
2022-11-03T19:43:34.330Z,98033.22
2022-11-03T19:46:42.246Z,98026.25
2022-11-03T19:49:48.476Z,98026.34
2022-11-03T19:52:58.244Z,98027.94
2022-11-03T19:56:04.385Z,98022.69
2022-11-03T19:59:16.284Z,98016.59
2022-11-03T20:02:22.067Z,98007.22
2022-11-03T20:05:28.601Z,98004.91
2022-11-03T20:08:36.911Z,98002.47
2022-11-03T20:11:43.462Z,98004.56
2022-11-03T20:14:52.085Z,97997.84
2022-11-03T20:17:58.712Z,97996.38
2022-11-03T20:21:08.139Z,97992.06
2022-11-03T20:24:18.583Z,97987.94
2022-11-03T20:27:24.468Z,97995.09
2022-11-03T20:30:33.708Z,97982.91
2022-11-03T20:33:39.662Z,97981.97
2022-11-03T20:36:48.153Z,97985.44
2022-11-03T20:39:54.018Z,97984.59
2022-11-03T20:43:04.251Z,97980.19
2022-11-03T20:46:23.591Z,97979.13
2022-11-03T20:49:30.373Z,97971.47
2022-11-03T20:52:36.123Z,97970.72
2022-11-03T20:55:42.656Z,97965.69
2022-11-03T20:58:48.308Z,97957.25
2022-11-03T21:01:57.980Z,97962.06
2022-11-03T21:05:10.292Z,97954.97
2022-11-03T21:08:17.284Z,97955.22
2022-11-03T21:11:28.504Z,97966.88
2022-11-03T21:14:35.846Z,97958.47
2022-11-03T21:18:00.142Z,97955.13
2022-11-03T21:21:11.331Z,97956.97
2022-11-03T21:24:17.205Z,97955.31
2022-11-03T21:27:23.984Z,97943.94
2022-11-03T21:30:29.616Z,97943.09
2022-11-03T21:33:39.427Z,97936.19
2022-11-03T21:36:45.037Z,97938.81
2022-11-03T21:39:51.492Z,97925.69
2022-11-03T21:43:12.895Z,97920.25
2022-11-03T21:46:19.340Z,97913.38
2022-11-03T21:49:46.249Z,97908.09
2022-11-03T21:52:52.860Z,97903.84
2022-11-03T21:55:58.671Z,97906.56
2022-11-03T21:59:06.902Z,97896.28
2022-11-03T22:02:15.783Z,97894.06
2022-11-03T22:05:25.061Z,97889.53
2022-11-03T22:08:30.661Z,97892.34
2022-11-03T22:11:37.238Z,97886.38
2022-11-03T22:14:58.677Z,97884.59
2022-11-03T22:18:08.731Z,97868.94
2022-11-03T22:21:38.098Z,97874.19
2022-11-03T22:25:00.813Z,97862.13
2022-11-03T22:28:14.123Z,97862.03
2022-11-03T22:31:36.935Z,97859.50
2022-11-03T22:35:06.439Z,97850.03
2022-11-03T22:38:17.776Z,97842.38
2022-11-03T22:41:39.523Z,97839.00
2022-11-03T22:45:03.279Z,97839.13
2022-11-03T22:48:09.646Z,97828.00
2022-11-03T22:51:18.407Z,97829.88
2022-11-03T22:54:29.956Z,97815.38
2022-11-03T22:57:36.373Z,97816.44
2022-11-03T23:00:43.073Z,97818.41
2022-11-03T23:03:50.986Z,97814.19
2022-11-03T23:06:56.694Z,97817.97
2022-11-03T23:10:06.784Z,97812.00
2022-11-03T23:13:12.389Z,97803.59
2022-11-03T23:16:21.109Z,97801.06
2022-11-03T23:19:42.457Z,97799.59
2022-11-03T23:22:48.895Z,97795.38
2022-11-03T23:25:54.528Z,97783.41
2022-11-03T23:29:01.007Z,97778.38
2022-11-03T23:32:08.455Z,97769.69
2022-11-03T23:35:15.154Z,97766.22
2022-11-03T23:38:20.740Z,97761.16
2022-11-03T23:41:30.790Z,97746.28
2022-11-03T23:44:57.941Z,97744.78
2022-11-03T23:48:22.269Z,97744.16
2022-11-03T23:51:32.166Z,97737.25
2022-11-03T23:54:38.978Z,97725.28
2022-11-03T23:58:03.531Z,97721.16
